Terminal Aerodrome Forecast
Issued by NWS Wilmington, NC

Home | Current Version | Previous Version | Text Only | Print | Product List | Glossary On
Versions: 1 2 3 4 5 6 7 8 9 10 11 12 13 14 15
432
FTUS42 KILM 290520
TAFMYR
TAF
KMYR 290520Z 2906/3006 23009KT P6SM SCT025 BKN150
     FM291000 27003KT 5SM BR BKN250
     FM291300 33006KT P6SM SCT040
     FM291800 16010KT P6SM SKC
     FM300000 13004KT P6SM SKC
      AMD LTD TO CLD VIS AND WIND TIL 291100=

USA.gov is the U.S. government's official web portal to all federal, state and local government web resources and services.